sensor_id;sensor_type;location;lat;lon;timestamp;pressure;altitude;pressure_sealevel;temperature;humidity
20027;BME280;10174;42.688;23.344;2023-05-16T00:01:51;95037.16;;;14.15;93.74
20027;BME280;10174;42.688;23.344;2023-05-16T00:04:17;95030.81;;;14.06;94.04
20027;BME280;10174;42.688;23.344;2023-05-16T00:06:42;95039.81;;;14.01;94.89
20027;BME280;10174;42.688;23.344;2023-05-16T00:09:07;95033.91;;;13.99;94.67
20027;BME280;10174;42.688;23.344;2023-05-16T00:11:33;95038.94;;;14.06;94.44
20027;BME280;10174;42.688;23.344;2023-05-16T00:13:58;95011.50;;;13.99;93.98
20027;BME280;10174;42.688;23.344;2023-05-16T00:16:25;94998.56;;;13.96;93.38
20027;BME280;10174;42.688;23.344;2023-05-16T00:18:53;95013.81;;;14.05;93.37
20027;BME280;10174;42.688;23.344;2023-05-16T00:21:18;94967.19;;;13.81;93.21
20027;BME280;10174;42.688;23.344;2023-05-16T00:23:44;95020.03;;;14.06;93.62
20027;BME280;10174;42.688;23.344;2023-05-16T00:26:09;94937.25;;;13.58;93.82
20027;BME280;10174;42.688;23.344;2023-05-16T00:28:35;94980.31;;;13.87;92.88
20027;BME280;10174;42.688;23.344;2023-05-16T00:31:00;95018.22;;;14.20;92.80
20027;BME280;10174;42.688;23.344;2023-05-16T00:33:25;95017.56;;;14.10;92.90
20027;BME280;10174;42.688;23.344;2023-05-16T00:35:51;95004.41;;;13.84;93.83
20027;BME280;10174;42.688;23.344;2023-05-16T00:38:18;95018.78;;;13.79;96.31
20027;BME280;10174;42.688;23.344;2023-05-16T00:40:43;94996.50;;;13.68;96.17
20027;BME280;10174;42.688;23.344;2023-05-16T00:43:08;95011.56;;;13.75;96.82
20027;BME280;10174;42.688;23.344;2023-05-16T00:45:34;94995.69;;;13.68;96.72
20027;BME280;10174;42.688;23.344;2023-05-16T00:48:00;94874.13;;;13.16;95.77
20027;BME280;10174;42.688;23.344;2023-05-16T00:50:25;94953.66;;;13.62;95.87
20027;BME280;10174;42.688;23.344;2023-05-16T00:52:50;94999.97;;;13.93;95.01
20027;BME280;10174;42.688;23.344;2023-05-16T00:55:16;94986.00;;;13.86;96.16
20027;BME280;10174;42.688;23.344;2023-05-16T00:57:42;94956.03;;;13.68;96.76
20027;BME280;10174;42.688;23.344;2023-05-16T01:00:08;94950.75;;;13.58;96.15
20027;BME280;10174;42.688;23.344;2023-05-16T01:02:35;94946.69;;;13.61;95.95
20027;BME280;10174;42.688;23.344;2023-05-16T01:05:01;94979.56;;;13.82;95.75
20027;BME280;10174;42.688;23.344;2023-05-16T01:07:27;94975.00;;;13.82;96.00
20027;BME280;10174;42.688;23.344;2023-05-16T01:09:53;94878.44;;;13.17;95.07
20027;BME280;10174;42.688;23.344;2023-05-16T01:15:20;94981.94;;;13.88;94.82
20027;BME280;10174;42.688;23.344;2023-05-16T01:18:02;94976.28;;;13.85;95.56
20027;BME280;10174;42.688;23.344;2023-05-16T01:23:46;94959.00;;;13.86;95.89
20027;BME280;10174;42.688;23.344;2023-05-16T01:26:26;94888.16;;;13.37;94.94
20027;BME280;10174;42.688;23.344;2023-05-16T01:28:53;94945.94;;;13.74;95.00
20027;BME280;10174;42.688;23.344;2023-05-16T01:31:19;94881.41;;;13.40;94.56
20027;BME280;10174;42.688;23.344;2023-05-16T01:33:46;94954.47;;;13.81;95.55
20027;BME280;10174;42.688;23.344;2023-05-16T01:36:27;94933.75;;;13.77;95.14
20027;BME280;10174;42.688;23.344;2023-05-16T01:39:02;94956.25;;;13.91;94.93
20027;BME280;10174;42.688;23.344;2023-05-16T01:44:07;94847.50;;;13.28;95.25
20027;BME280;10174;42.688;23.344;2023-05-16T01:46:37;94938.50;;;13.85;94.94
20027;BME280;10174;42.688;23.344;2023-05-16T01:49:16;94936.38;;;13.82;94.88
20027;BME280;10174;42.688;23.344;2023-05-16T01:51:49;94927.69;;;13.85;93.86
20027;BME280;10174;42.688;23.344;2023-05-16T01:54:17;94814.28;;;13.14;93.84
20027;BME280;10174;42.688;23.344;2023-05-16T01:56:52;94821.66;;;13.27;93.40
20027;BME280;10174;42.688;23.344;2023-05-16T01:59:19;94924.16;;;13.89;94.17
20027;BME280;10174;42.688;23.344;2023-05-16T02:01:46;94767.34;;;12.77;94.07
20027;BME280;10174;42.688;23.344;2023-05-16T02:04:11;94933.03;;;13.90;93.53
20027;BME280;10174;42.688;23.344;2023-05-16T02:06:39;94930.03;;;13.92;93.77
20027;BME280;10174;42.688;23.344;2023-05-16T02:09:05;94926.56;;;13.91;93.04
20027;BME280;10174;42.688;23.344;2023-05-16T02:11:30;94901.47;;;13.71;93.48
20027;BME280;10174;42.688;23.344;2023-05-16T02:13:55;94899.69;;;13.62;94.83
20027;BME280;10174;42.688;23.344;2023-05-16T02:16:21;94830.16;;;13.15;95.03
20027;BME280;10174;42.688;23.344;2023-05-16T02:18:46;94917.22;;;13.64;95.29
20027;BME280;10174;42.688;23.344;2023-05-16T02:21:12;94921.34;;;13.76;95.07
20027;BME280;10174;42.688;23.344;2023-05-16T02:23:37;94891.22;;;13.49;95.72
20027;BME280;10174;42.688;23.344;2023-05-16T02:26:03;94925.50;;;13.68;95.03
20027;BME280;10174;42.688;23.344;2023-05-16T02:28:28;94855.09;;;13.26;94.99
20027;BME280;10174;42.688;23.344;2023-05-16T02:30:58;94901.44;;;13.52;95.36
20027;BME280;10174;42.688;23.344;2023-05-16T02:33:28;94876.59;;;13.36;96.12
20027;BME280;10174;42.688;23.344;2023-05-16T02:35:53;94910.00;;;13.60;95.79
20027;BME280;10174;42.688;23.344;2023-05-16T02:38:19;94895.25;;;13.52;95.97
20027;BME280;10174;42.688;23.344;2023-05-16T02:40:48;94921.00;;;13.63;95.92
20027;BME280;10174;42.688;23.344;2023-05-16T02:43:15;94924.06;;;13.57;95.03
20027;BME280;10174;42.688;23.344;2023-05-16T02:45:40;94914.16;;;13.52;95.46
20027;BME280;10174;42.688;23.344;2023-05-16T02:48:06;94901.81;;;13.46;95.32
20027;BME280;10174;42.688;23.344;2023-05-16T02:50:32;94921.53;;;13.65;94.88
20027;BME280;10174;42.688;23.344;2023-05-16T02:52:58;94903.63;;;13.50;95.11
20027;BME280;10174;42.688;23.344;2023-05-16T02:55:26;94887.25;;;13.47;95.13
20027;BME280;10174;42.688;23.344;2023-05-16T02:57:52;94922.53;;;13.69;95.01
20027;BME280;10174;42.688;23.344;2023-05-16T03:00:18;94912.63;;;13.84;93.74
20027;BME280;10174;42.688;23.344;2023-05-16T03:02:43;94884.31;;;13.62;93.38
20027;BME280;10174;42.688;23.344;2023-05-16T03:05:09;94913.78;;;13.78;93.48
20027;BME280;10174;42.688;23.344;2023-05-16T03:07:36;94913.78;;;13.78;94.18
20027;BME280;10174;42.688;23.344;2023-05-16T03:10:02;94916.41;;;13.83;93.84
20027;BME280;10174;42.688;23.344;2023-05-16T03:12:28;94915.38;;;13.79;93.73
20027;BME280;10174;42.688;23.344;2023-05-16T03:14:53;94890.13;;;13.69;93.11
20027;BME280;10174;42.688;23.344;2023-05-16T03:17:19;94916.25;;;13.93;92.67
20027;BME280;10174;42.688;23.344;2023-05-16T03:19:44;94909.19;;;13.97;92.40
20027;BME280;10174;42.688;23.344;2023-05-16T03:22:10;94907.19;;;14.03;92.00
20027;BME280;10174;42.688;23.344;2023-05-16T03:24:35;94820.47;;;13.71;89.94
20027;BME280;10174;42.688;23.344;2023-05-16T03:27:00;94905.03;;;14.19;90.37
20027;BME280;10174;42.688;23.344;2023-05-16T03:29:28;94737.69;;;13.15;90.59
20027;BME280;10174;42.688;23.344;2023-05-16T03:31:53;94873.97;;;14.02;90.43
20027;BME280;10174;42.688;23.344;2023-05-16T03:34:19;94899.66;;;14.19;90.68
20027;BME280;10174;42.688;23.344;2023-05-16T03:36:44;94881.13;;;14.26;89.86
20027;BME280;10174;42.688;23.344;2023-05-16T03:39:10;94889.81;;;14.23;89.57
20027;BME280;10174;42.688;23.344;2023-05-16T03:41:36;94876.25;;;14.28;89.18
20027;BME280;10174;42.688;23.344;2023-05-16T03:44:01;94858.00;;;14.20;89.12
20027;BME280;10174;42.688;23.344;2023-05-16T03:46:26;94902.91;;;14.49;88.73
20027;BME280;10174;42.688;23.344;2023-05-16T03:48:52;94903.19;;;14.47;88.83
20027;BME280;10174;42.688;23.344;2023-05-16T03:51:17;94901.97;;;14.39;89.31
20027;BME280;10174;42.688;23.344;2023-05-16T03:53:42;94905.81;;;14.38;89.66
20027;BME280;10174;42.688;23.344;2023-05-16T03:56:08;94906.31;;;14.40;89.84
20027;BME280;10174;42.688;23.344;2023-05-16T03:58:33;94907.31;;;14.45;89.63
20027;BME280;10174;42.688;23.344;2023-05-16T04:00:59;94905.81;;;14.38;90.46
20027;BME280;10174;42.688;23.344;2023-05-16T04:03:24;94908.91;;;14.46;90.45
20027;BME280;10174;42.688;23.344;2023-05-16T04:05:53;94897.59;;;14.43;90.23
20027;BME280;10174;42.688;23.344;2023-05-16T04:08:19;94861.50;;;14.06;90.10
20027;BME280;10174;42.688;23.344;2023-05-16T04:10:45;94891.34;;;14.29;90.47
20027;BME280;10174;42.688;23.344;2023-05-16T04:13:11;94881.53;;;14.19;90.77
20027;BME280;10174;42.688;23.344;2023-05-16T04:15:36;94836.78;;;13.80;91.05
20027;BME280;10174;42.688;23.344;2023-05-16T04:18:01;94890.63;;;14.10;91.71
20027;BME280;10174;42.688;23.344;2023-05-16T04:20:27;94901.81;;;14.17;91.35
20027;BME280;10174;42.688;23.344;2023-05-16T04:22:52;94915.66;;;14.29;91.18
20027;BME280;10174;42.688;23.344;2023-05-16T04:25:18;94863.84;;;13.94;91.26
20027;BME280;10174;42.688;23.344;2023-05-16T04:27:43;94922.50;;;14.40;90.19
20027;BME280;10174;42.688;23.344;2023-05-16T04:30:09;94896.28;;;14.41;89.24
20027;BME280;10174;42.688;23.344;2023-05-16T04:32:36;94889.88;;;14.37;89.89
20027;BME280;10174;42.688;23.344;2023-05-16T04:35:02;94894.91;;;14.43;89.73
20027;BME280;10174;42.688;23.344;2023-05-16T04:37:27;94898.50;;;14.53;89.38
20027;BME280;10174;42.688;23.344;2023-05-16T04:39:52;94883.28;;;14.43;90.02
20027;BME280;10174;42.688;23.344;2023-05-16T04:42:19;94873.94;;;14.35;90.21
20027;BME280;10174;42.688;23.344;2023-05-16T04:44:44;94899.00;;;14.55;89.64
20027;BME280;10174;42.688;23.344;2023-05-16T04:47:12;94899.88;;;14.69;88.99
20027;BME280;10174;42.688;23.344;2023-05-16T04:49:37;94900.25;;;14.76;87.44
20027;BME280;10174;42.688;23.344;2023-05-16T04:52:03;94890.38;;;14.86;86.98
20027;BME280;10174;42.688;23.344;2023-05-16T04:54:29;94842.78;;;14.57;86.05
20027;BME280;10174;42.688;23.344;2023-05-16T04:56:54;94896.88;;;14.85;86.67
20027;BME280;10174;42.688;23.344;2023-05-16T04:59:19;94799.59;;;14.38;86.44
20027;BME280;10174;42.688;23.344;2023-05-16T05:01:45;94888.28;;;14.96;86.55
20027;BME280;10174;42.688;23.344;2023-05-16T05:04:11;94877.03;;;15.03;86.58
20027;BME280;10174;42.688;23.344;2023-05-16T05:06:36;94896.66;;;15.23;85.69
20027;BME280;10174;42.688;23.344;2023-05-16T05:09:02;94898.84;;;15.21;85.53
20027;BME280;10174;42.688;23.344;2023-05-16T05:11:30;94868.81;;;15.08;83.77
20027;BME280;10174;42.688;23.344;2023-05-16T05:13:55;94780.50;;;14.34;84.32
20027;BME280;10174;42.688;23.344;2023-05-16T05:16:20;94909.91;;;15.24;84.36
20027;BME280;10174;42.688;23.344;2023-05-16T05:18:46;94915.91;;;15.21;85.56
20027;BME280;10174;42.688;23.344;2023-05-16T05:21:12;94920.50;;;15.21;85.71
20027;BME280;10174;42.688;23.344;2023-05-16T05:23:37;94895.34;;;15.20;85.38
20027;BME280;10174;42.688;23.344;2023-05-16T05:26:03;94895.34;;;15.20;85.41
20027;BME280;10174;42.688;23.344;2023-05-16T05:28:28;94880.22;;;15.19;84.44
20027;BME280;10174;42.688;23.344;2023-05-16T05:30:55;94920.50;;;15.35;84.72
20027;BME280;10174;42.688;23.344;2023-05-16T05:33:25;94885.25;;;15.12;85.90
20027;BME280;10174;42.688;23.344;2023-05-16T05:35:51;94881.00;;;15.34;84.71
20027;BME280;10174;42.688;23.344;2023-05-16T05:38:18;94749.69;;;14.49;84.55
20027;BME280;10174;42.688;23.344;2023-05-16T05:40:43;94870.81;;;15.17;85.46
20027;BME280;10174;42.688;23.344;2023-05-16T05:43:09;94879.44;;;15.19;85.91
20027;BME280;10174;42.688;23.344;2023-05-16T05:45:35;94879.44;;;15.19;86.14
20027;BME280;10174;42.688;23.344;2023-05-16T05:48:00;94856.91;;;15.09;86.28
20027;BME280;10174;42.688;23.344;2023-05-16T05:50:26;94852.84;;;15.21;84.60
20027;BME280;10174;42.688;23.344;2023-05-16T05:52:51;94886.00;;;15.40;84.29
20027;BME280;10174;42.688;23.344;2023-05-16T05:55:17;94845.53;;;15.35;84.35
20027;BME280;10174;42.688;23.344;2023-05-16T05:57:42;94751.88;;;14.61;84.59
20027;BME280;10174;42.688;23.344;2023-05-16T06:00:08;94817.13;;;14.96;85.45
20027;BME280;10174;42.688;23.344;2023-05-16T06:02:34;94773.41;;;14.66;85.32
20027;BME280;10174;42.688;23.344;2023-05-16T06:05:00;94867.28;;;15.30;85.31
20027;BME280;10174;42.688;23.344;2023-05-16T06:07:25;94867.66;;;15.37;83.94
20027;BME280;10174;42.688;23.344;2023-05-16T06:09:50;94845.94;;;15.42;83.88
20027;BME280;10174;42.688;23.344;2023-05-16T06:12:16;94882.13;;;15.69;83.83
20027;BME280;10174;42.688;23.344;2023-05-16T06:14:42;94880.00;;;15.80;83.41
20027;BME280;10174;42.688;23.344;2023-05-16T06:17:07;94852.69;;;15.54;84.51
20027;BME280;10174;42.688;23.344;2023-05-16T06:19:32;94876.59;;;15.74;84.28
20027;BME280;10174;42.688;23.344;2023-05-16T06:21:58;94877.38;;;15.52;84.88
20027;BME280;10174;42.688;23.344;2023-05-16T06:24:23;94872.44;;;15.54;84.42
20027;BME280;10174;42.688;23.344;2023-05-16T06:26:48;94762.47;;;14.85;83.86
20027;BME280;10174;42.688;23.344;2023-05-16T06:29:15;94872.56;;;15.49;84.98
20027;BME280;10174;42.688;23.344;2023-05-16T06:31:41;94882.66;;;15.57;84.56
20027;BME280;10174;42.688;23.344;2023-05-16T06:34:06;94760.66;;;14.81;84.76
20027;BME280;10174;42.688;23.344;2023-05-16T06:36:32;94842.22;;;15.38;85.16
20027;BME280;10174;42.688;23.344;2023-05-16T06:38:57;94871.91;;;15.66;83.93
20027;BME280;10174;42.688;23.344;2023-05-16T06:41:23;94868.81;;;15.59;84.45
20027;BME280;10174;42.688;23.344;2023-05-16T06:43:48;94812.38;;;15.29;83.83
20027;BME280;10174;42.688;23.344;2023-05-16T06:46:13;94849.63;;;15.69;82.74
20027;BME280;10174;42.688;23.344;2023-05-16T06:48:39;94864.66;;;15.75;82.24
20027;BME280;10174;42.688;23.344;2023-05-16T06:51:04;94839.59;;;15.70;82.22
20027;BME280;10174;42.688;23.344;2023-05-16T06:53:30;94862.22;;;15.88;81.64
20027;BME280;10174;42.688;23.344;2023-05-16T06:55:55;94827.50;;;15.67;82.84
20027;BME280;10174;42.688;23.344;2023-05-16T06:58:21;94815.69;;;15.85;80.53
20027;BME280;10174;42.688;23.344;2023-05-16T07:00:48;94839.84;;;15.96;80.81
20027;BME280;10174;42.688;23.344;2023-05-16T07:03:13;94845.06;;;15.92;81.76
20027;BME280;10174;42.688;23.344;2023-05-16T07:05:39;94847.59;;;15.89;82.47
20027;BME280;10174;42.688;23.344;2023-05-16T07:08:07;94842.97;;;15.89;80.37
20027;BME280;10174;42.688;23.344;2023-05-16T07:10:34;94827.63;;;16.07;79.85
20027;BME280;10174;42.688;23.344;2023-05-16T07:12:59;94826.28;;;15.96;80.89
20027;BME280;10174;42.688;23.344;2023-05-16T07:15:25;94827.88;;;15.97;80.07
20027;BME280;10174;42.688;23.344;2023-05-16T07:17:51;94819.75;;;15.97;80.43
20027;BME280;10174;42.688;23.344;2023-05-16T07:20:16;94820.44;;;16.02;79.98
20027;BME280;10174;42.688;23.344;2023-05-16T07:22:42;94822.84;;;16.04;80.09
20027;BME280;10174;42.688;23.344;2023-05-16T07:25:07;94826.94;;;16.01;80.17
20027;BME280;10174;42.688;23.344;2023-05-16T07:27:39;94784.84;;;15.95;79.58
20027;BME280;10174;42.688;23.344;2023-05-16T07:30:10;94765.22;;;15.90;77.15
20027;BME280;10174;42.688;23.344;2023-05-16T07:32:36;94824.69;;;16.26;78.71
20027;BME280;10174;42.688;23.344;2023-05-16T07:35:03;94808.88;;;16.19;78.99
20027;BME280;10174;42.688;23.344;2023-05-16T07:37:28;94815.03;;;16.34;78.93
20027;BME280;10174;42.688;23.344;2023-05-16T07:39:54;94822.53;;;16.37;78.69
20027;BME280;10174;42.688;23.344;2023-05-16T07:42:19;94810.25;;;16.31;78.94
20027;BME280;10174;42.688;23.344;2023-05-16T07:44:45;94733.53;;;15.67;78.99
20027;BME280;10174;42.688;23.344;2023-05-16T07:47:11;94822.28;;;16.25;79.16
20027;BME280;10174;42.688;23.344;2023-05-16T07:49:36;94846.31;;;16.40;79.12
20027;BME280;10174;42.688;23.344;2023-05-16T07:52:02;94752.31;;;15.87;79.27
20027;BME280;10174;42.688;23.344;2023-05-16T07:54:27;94825.69;;;16.62;78.26
20027;BME280;10174;42.688;23.344;2023-05-16T07:56:52;94828.66;;;16.51;78.11
20027;BME280;10174;42.688;23.344;2023-05-16T07:59:18;94824.84;;;16.61;77.99
20027;BME280;10174;42.688;23.344;2023-05-16T08:01:43;94837.53;;;16.74;76.50
20027;BME280;10174;42.688;23.344;2023-05-16T08:04:08;94824.31;;;16.82;75.72
20027;BME280;10174;42.688;23.344;2023-05-16T08:06:34;94827.97;;;16.77;76.47
20027;BME280;10174;42.688;23.344;2023-05-16T08:08:59;94825.50;;;16.98;76.03
20027;BME280;10174;42.688;23.344;2023-05-16T08:11:25;94775.19;;;16.83;76.21
20027;BME280;10174;42.688;23.344;2023-05-16T08:13:50;94795.81;;;17.02;75.78
20027;BME280;10174;42.688;23.344;2023-05-16T08:16:16;94749.63;;;16.76;74.54
20027;BME280;10174;42.688;23.344;2023-05-16T08:18:41;94819.66;;;17.31;75.29
20027;BME280;10174;42.688;23.344;2023-05-16T08:21:07;94789.00;;;17.22;75.07
20027;BME280;10174;42.688;23.344;2023-05-16T08:23:33;94802.41;;;17.36;74.09
20027;BME280;10174;42.688;23.344;2023-05-16T08:25:59;94783.56;;;17.31;74.15
20027;BME280;10174;42.688;23.344;2023-05-16T08:28:24;94811.53;;;17.40;74.43
20027;BME280;10174;42.688;23.344;2023-05-16T08:30:50;94809.13;;;17.82;73.71
20027;BME280;10174;42.688;23.344;2023-05-16T08:33:15;94817.09;;;17.70;73.91
20027;BME280;10174;42.688;23.344;2023-05-16T08:35:42;94808.00;;;17.83;73.73
20027;BME280;10174;42.688;23.344;2023-05-16T08:38:08;94794.88;;;18.20;73.20
20027;BME280;10174;42.688;23.344;2023-05-16T08:40:35;94802.88;;;18.08;73.22
20027;BME280;10174;42.688;23.344;2023-05-16T08:43:01;94780.81;;;17.83;73.55
20027;BME280;10174;42.688;23.344;2023-05-16T08:45:27;94796.00;;;18.02;72.79
20027;BME280;10174;42.688;23.344;2023-05-16T08:47:56;94799.81;;;18.09;73.37
20027;BME280;10174;42.688;23.344;2023-05-16T08:50:23;94802.19;;;18.37;72.29
20027;BME280;10174;42.688;23.344;2023-05-16T08:52:51;94806.44;;;18.47;72.25
20027;BME280;10174;42.688;23.344;2023-05-16T08:55:21;94778.13;;;18.48;71.98
20027;BME280;10174;42.688;23.344;2023-05-16T08:57:49;94811.25;;;18.89;71.69
20027;BME280;10174;42.688;23.344;2023-05-16T09:00:16;94803.84;;;19.28;68.67
20027;BME280;10174;42.688;23.344;2023-05-16T09:02:43;94812.69;;;19.46;66.54
20027;BME280;10174;42.688;23.344;2023-05-16T09:05:11;94796.13;;;19.51;66.73
20027;BME280;10174;42.688;23.344;2023-05-16T09:07:37;94806.69;;;19.52;66.52
20027;BME280;10174;42.688;23.344;2023-05-16T09:10:04;94798.06;;;19.71;65.27
20027;BME280;10174;42.688;23.344;2023-05-16T09:12:31;94795.88;;;19.86;65.52
20027;BME280;10174;42.688;23.344;2023-05-16T09:14:57;94796.88;;;20.15;65.02
20027;BME280;10174;42.688;23.344;2023-05-16T09:17:22;94780.88;;;20.25;64.01
20027;BME280;10174;42.688;23.344;2023-05-16T09:19:48;94790.50;;;20.10;64.23
20027;BME280;10174;42.688;23.344;2023-05-16T09:22:17;94802.88;;;20.08;64.78
20027;BME280;10174;42.688;23.344;2023-05-16T09:24:43;94772.47;;;19.85;65.38
20027;BME280;10174;42.688;23.344;2023-05-16T09:27:11;94800.66;;;20.22;64.96
20027;BME280;10174;42.688;23.344;2023-05-16T09:29:41;94816.84;;;20.06;64.16
20027;BME280;10174;42.688;23.344;2023-05-16T09:32:14;94808.03;;;20.22;62.50
20027;BME280;10174;42.688;23.344;2023-05-16T09:34:57;94811.91;;;20.21;63.64
20027;BME280;10174;42.688;23.344;2023-05-16T09:37:23;94716.31;;;19.38;65.27
20027;BME280;10174;42.688;23.344;2023-05-16T09:39:51;94699.31;;;19.41;65.43
20027;BME280;10174;42.688;23.344;2023-05-16T09:42:18;94794.31;;;20.43;63.36
20027;BME280;10174;42.688;23.344;2023-05-16T09:44:53;94788.66;;;20.48;62.45
20027;BME280;10174;42.688;23.344;2023-05-16T09:47:20;94754.63;;;20.21;63.35
20027;BME280;10174;42.688;23.344;2023-05-16T09:49:50;94722.28;;;19.86;64.13
20027;BME280;10174;42.688;23.344;2023-05-16T09:52:16;94762.16;;;19.69;65.99
20027;BME280;10174;42.688;23.344;2023-05-16T09:54:42;94669.56;;;19.15;64.98
20027;BME280;10174;42.688;23.344;2023-05-16T09:57:07;94681.09;;;19.12;65.65
20027;BME280;10174;42.688;23.344;2023-05-16T09:59:39;94765.22;;;19.89;64.89
20027;BME280;10174;42.688;23.344;2023-05-16T10:02:06;94767.88;;;19.76;65.77
20027;BME280;10174;42.688;23.344;2023-05-16T10:04:34;94768.94;;;20.18;63.99
20027;BME280;10174;42.688;23.344;2023-05-16T10:07:03;94759.19;;;20.41;63.68
20027;BME280;10174;42.688;23.344;2023-05-16T10:09:32;94780.63;;;21.01;61.78
20027;BME280;10174;42.688;23.344;2023-05-16T10:12:03;94768.69;;;21.18;61.24
20027;BME280;10174;42.688;23.344;2023-05-16T10:14:35;94791.03;;;21.61;60.28
20027;BME280;10174;42.688;23.344;2023-05-16T10:17:06;94778.91;;;21.74;59.25
20027;BME280;10174;42.688;23.344;2023-05-16T10:19:35;94780.84;;;21.08;61.40
20027;BME280;10174;42.688;23.344;2023-05-16T10:22:04;94788.59;;;20.94;62.06
20027;BME280;10174;42.688;23.344;2023-05-16T10:24:45;94755.19;;;20.72;61.43
20027;BME280;10174;42.688;23.344;2023-05-16T10:27:13;94781.28;;;20.61;62.85
20027;BME280;10174;42.688;23.344;2023-05-16T10:29:39;94786.50;;;20.54;62.91
20027;BME280;10174;42.688;23.344;2023-05-16T10:32:07;94772.84;;;20.41;63.55
20027;BME280;10174;42.688;23.344;2023-05-16T10:34:33;94718.75;;;20.31;61.79
20027;BME280;10174;42.688;23.344;2023-05-16T10:36:59;94732.59;;;20.51;63.15
20027;BME280;10174;42.688;23.344;2023-05-16T10:39:25;94739.88;;;20.22;64.06
20027;BME280;10174;42.688;23.344;2023-05-16T10:41:52;94739.56;;;20.48;63.85
20027;BME280;10174;42.688;23.344;2023-05-16T10:44:17;94745.13;;;20.52;63.36
20027;BME280;10174;42.688;23.344;2023-05-16T10:46:43;94681.47;;;20.35;63.22
20027;BME280;10174;42.688;23.344;2023-05-16T10:49:24;94715.28;;;21.21;61.92
20027;BME280;10174;42.688;23.344;2023-05-16T10:52:06;94739.31;;;21.03;63.30
20027;BME280;10174;42.688;23.344;2023-05-16T10:54:39;94673.91;;;21.06;60.05
20027;BME280;10174;42.688;23.344;2023-05-16T10:57:08;94671.13;;;20.78;61.51
20027;BME280;10174;42.688;23.344;2023-05-16T10:59:45;94705.00;;;20.89;62.84
20027;BME280;10174;42.688;23.344;2023-05-16T11:02:25;94714.69;;;20.87;63.46
20027;BME280;10174;42.688;23.344;2023-05-16T11:04:52;94673.75;;;20.62;62.60
20027;BME280;10174;42.688;23.344;2023-05-16T11:07:20;94723.41;;;21.05;60.54
20027;BME280;10174;42.688;23.344;2023-05-16T11:10:00;94730.03;;;20.79;61.89
20027;BME280;10174;42.688;23.344;2023-05-16T11:12:57;94744.94;;;20.81;61.79
20027;BME280;10174;42.688;23.344;2023-05-16T11:15:30;94748.34;;;20.66;63.68
20027;BME280;10174;42.688;23.344;2023-05-16T11:18:07;94746.50;;;20.70;62.45
20027;BME280;10174;42.688;23.344;2023-05-16T11:20:37;94724.22;;;20.31;65.10
20027;BME280;10174;42.688;23.344;2023-05-16T11:25:56;94720.31;;;20.20;65.86
20027;BME280;10174;42.688;23.344;2023-05-16T11:28:26;94763.19;;;20.56;63.94
20027;BME280;10174;42.688;23.344;2023-05-16T11:30:54;94761.00;;;20.13;64.30
20027;BME280;10174;42.688;23.344;2023-05-16T11:33:22;94758.47;;;20.07;65.33
20027;BME280;10174;42.688;23.344;2023-05-16T11:36:05;94736.19;;;19.93;65.58
20027;BME280;10174;42.688;23.344;2023-05-16T11:38:31;94752.84;;;20.25;65.09
20027;BME280;10174;42.688;23.344;2023-05-16T11:41:07;94734.09;;;20.23;65.22
20027;BME280;10174;42.688;23.344;2023-05-16T11:43:37;94750.69;;;20.55;64.01
20027;BME280;10174;42.688;23.344;2023-05-16T11:46:03;94730.56;;;20.47;62.89
20027;BME280;10174;42.688;23.344;2023-05-16T11:48:29;94765.25;;;20.47;64.19
20027;BME280;10174;42.688;23.344;2023-05-16T11:50:54;94680.22;;;20.20;63.78
20027;BME280;10174;42.688;23.344;2023-05-16T11:53:20;94681.25;;;20.53;62.80
20027;BME280;10174;42.688;23.344;2023-05-16T11:55:46;94730.13;;;20.95;63.15
20027;BME280;10174;42.688;23.344;2023-05-16T11:58:16;94736.94;;;21.13;63.04
20027;BME280;10174;42.688;23.344;2023-05-16T12:00:49;94731.47;;;21.13;60.49
20027;BME280;10174;42.688;23.344;2023-05-16T12:03:14;94720.69;;;20.92;63.52
20027;BME280;10174;42.688;23.344;2023-05-16T12:05:49;94635.47;;;20.71;62.98
20027;BME280;10174;42.688;23.344;2023-05-16T12:08:16;94717.50;;;21.84;61.06
20027;BME280;10174;42.688;23.344;2023-05-16T12:10:41;94702.78;;;21.88;59.37
20027;BME280;10174;42.688;23.344;2023-05-16T12:13:07;94673.59;;;22.24;56.35
20027;BME280;10174;42.688;23.344;2023-05-16T12:15:32;94653.13;;;22.50;56.21
20027;BME280;10174;42.688;23.344;2023-05-16T12:17:58;94699.22;;;23.00;53.93
20027;BME280;10174;42.688;23.344;2023-05-16T12:20:24;94701.16;;;23.15;54.57
20027;BME280;10174;42.688;23.344;2023-05-16T12:22:51;94691.94;;;23.43;54.56
20027;BME280;10174;42.688;23.344;2023-05-16T12:25:24;94697.84;;;24.04;52.74
20027;BME280;10174;42.688;23.344;2023-05-16T12:27:52;94667.13;;;23.55;53.41
20027;BME280;10174;42.688;23.344;2023-05-16T12:30:18;94639.66;;;23.52;52.76
20027;BME280;10174;42.688;23.344;2023-05-16T12:32:51;94687.75;;;23.69;53.41
20027;BME280;10174;42.688;23.344;2023-05-16T12:35:17;94642.34;;;23.71;52.38
20027;BME280;10174;42.688;23.344;2023-05-16T12:37:42;94673.47;;;23.59;52.83
20027;BME280;10174;42.688;23.344;2023-05-16T12:40:08;94651.00;;;23.30;53.52
20027;BME280;10174;42.688;23.344;2023-05-16T12:42:35;94636.81;;;22.89;54.79
20027;BME280;10174;42.688;23.344;2023-05-16T12:45:01;94670.59;;;22.62;56.82
20027;BME280;10174;42.688;23.344;2023-05-16T12:47:35;94690.19;;;22.64;56.64
20027;BME280;10174;42.688;23.344;2023-05-16T12:50:01;94703.94;;;22.19;58.00
20027;BME280;10174;42.688;23.344;2023-05-16T12:52:27;94648.03;;;21.57;59.54
20027;BME280;10174;42.688;23.344;2023-05-16T12:54:53;94695.41;;;21.61;59.76
20027;BME280;10174;42.688;23.344;2023-05-16T12:57:18;94702.91;;;21.64;59.91
20027;BME280;10174;42.688;23.344;2023-05-16T12:59:44;94701.63;;;21.21;61.42
20027;BME280;10174;42.688;23.344;2023-05-16T13:02:09;94715.50;;;21.28;60.24